EFW73AW EGKK-LICC
Flight info
| Callsign | EFW73AW |
|---|---|
| Flight time | N/A |
| Altitude | 35000 |
| Route | SFD4Z SFD Y47 BENBO UL612 OGULO DCT OKASI DCT OKEKO DCT MOU DCT MADIV DCT MOKIP DCT TUFTA DCT KOGAS DCT MEDAM DCT NITAM DCT MOGBO DCT KONER DCT EVROG DCT BAKRO DCT VELAD DCT BEKIV DCT ENEPA DCT LIBRO LIBRO1Q |
| Aircraft | A320/M-SDE3FGIJ1RWXY/SB1 |
Departure
| Time | N/A |
|---|---|
| Airport | London Gatwick Airport (EGKK) |
Arrival
| Time | 2026-04-27 15:55 |
|---|---|
| Airport | Catania-Fontanarossa Airport (LICC) |
| Time | Latitude | Longitude | Altitude | Speed | Heading |
|---|---|---|---|---|---|
| 2026-04-27 15:08 | 41.47327 | 11.19111 | 35145 ft | 458 kts | 153° |
| 2026-04-27 15:08 | 41.46628 | 11.19622 | 35146 ft | 458 kts | 153° |
| 2026-04-27 15:09 | 41.41690 | 11.23234 | 35149 ft | 458 kts | 153° |
| 2026-04-27 15:09 | 41.36098 | 11.27309 | 35145 ft | 458 kts | 153° |
| 2026-04-27 15:10 | 41.30512 | 11.31371 | 35141 ft | 458 kts | 153° |
| 2026-04-27 15:10 | 41.24918 | 11.35433 | 35140 ft | 458 kts | 153° |
| 2026-04-27 15:11 | 41.19324 | 11.39494 | 35139 ft | 458 kts | 153° |
| 2026-04-27 15:11 | 41.13731 | 11.43547 | 35142 ft | 458 kts | 153° |
| 2026-04-27 15:12 | 41.08126 | 11.47590 | 35146 ft | 458 kts | 153° |
| 2026-04-27 15:12 | 41.02525 | 11.51629 | 35149 ft | 458 kts | 153° |
| 2026-04-27 15:13 | 40.96922 | 11.55657 | 35143 ft | 458 kts | 153° |
| 2026-04-27 15:13 | 40.91320 | 11.59684 | 35142 ft | 458 kts | 153° |
| 2026-04-27 15:14 | 40.85720 | 11.63709 | 35145 ft | 458 kts | 153° |
| 2026-04-27 15:14 | 40.80080 | 11.67744 | 35140 ft | 458 kts | 153° |
| 2026-04-27 15:15 | 40.74517 | 11.71712 | 35136 ft | 458 kts | 153° |
| 2026-04-27 15:15 | 40.68876 | 11.75729 | 35141 ft | 458 kts | 153° |
| 2026-04-27 15:16 | 40.63263 | 11.79709 | 35146 ft | 458 kts | 153° |
| 2026-04-27 15:16 | 40.57648 | 11.83697 | 35148 ft | 458 kts | 153° |
| 2026-04-27 15:17 | 40.52036 | 11.87685 | 35150 ft | 458 kts | 153° |
| 2026-04-27 15:17 | 40.46418 | 11.91650 | 35151 ft | 458 kts | 153° |
| 2026-04-27 15:18 | 40.40803 | 11.95607 | 35148 ft | 458 kts | 153° |
| 2026-04-27 15:18 | 40.35197 | 11.99561 | 35145 ft | 457 kts | 153° |
| 2026-04-27 15:19 | 40.29589 | 12.03503 | 35148 ft | 457 kts | 153° |
| 2026-04-27 15:19 | 40.23980 | 12.07439 | 35148 ft | 457 kts | 153° |
| 2026-04-27 15:20 | 40.18368 | 12.11367 | 35149 ft | 457 kts | 153° |
| 2026-04-27 15:20 | 40.13665 | 12.14652 | 35145 ft | 457 kts | 153° |
| 2026-04-27 15:21 | 40.08054 | 12.18565 | 35146 ft | 457 kts | 153° |
| 2026-04-27 15:21 | 40.02444 | 12.22467 | 35143 ft | 457 kts | 153° |
| 2026-04-27 15:22 | 39.96836 | 12.26369 | 35140 ft | 457 kts | 153° |
| 2026-04-27 15:22 | 39.91228 | 12.30269 | 35137 ft | 457 kts | 154° |
| 2026-04-27 15:23 | 39.85618 | 12.34155 | 35140 ft | 457 kts | 154° |
| 2026-04-27 15:23 | 39.80005 | 12.38036 | 35142 ft | 457 kts | 154° |
| 2026-04-27 15:24 | 39.74392 | 12.41911 | 35140 ft | 457 kts | 154° |
| 2026-04-27 15:24 | 39.68773 | 12.45787 | 35141 ft | 457 kts | 154° |
| 2026-04-27 15:25 | 39.63159 | 12.49651 | 35136 ft | 457 kts | 154° |
| 2026-04-27 15:25 | 39.57539 | 12.53512 | 35134 ft | 457 kts | 154° |
| 2026-04-27 15:26 | 39.51917 | 12.57369 | 35133 ft | 457 kts | 154° |
| 2026-04-27 15:26 | 39.46293 | 12.61214 | 35132 ft | 457 kts | 154° |
| 2026-04-27 15:27 | 39.40666 | 12.65055 | 35135 ft | 457 kts | 154° |
| 2026-04-27 15:27 | 39.35033 | 12.68883 | 35130 ft | 458 kts | 154° |
| 2026-04-27 15:28 | 39.29359 | 12.72745 | 35126 ft | 458 kts | 154° |
| 2026-04-27 15:28 | 39.23716 | 12.76587 | 35129 ft | 459 kts | 154° |
| 2026-04-27 15:29 | 39.18066 | 12.80412 | 35132 ft | 459 kts | 154° |
| 2026-04-27 15:29 | 39.12397 | 12.84237 | 35126 ft | 460 kts | 154° |
| 2026-04-27 15:30 | 39.06731 | 12.88067 | 35125 ft | 460 kts | 155° |
| 2026-04-27 15:30 | 39.01057 | 12.91891 | 35124 ft | 461 kts | 155° |
| 2026-04-27 15:31 | 38.95375 | 12.95713 | 35123 ft | 461 kts | 155° |
| 2026-04-27 15:31 | 38.89688 | 12.99537 | 35120 ft | 462 kts | 155° |
| 2026-04-27 15:32 | 38.83990 | 13.03349 | 35122 ft | 462 kts | 155° |
| 2026-04-27 15:32 | 38.78277 | 13.07146 | 35122 ft | 463 kts | 155° |
| 2026-04-27 15:33 | 38.72563 | 13.10954 | 35117 ft | 463 kts | 155° |
| 2026-04-27 15:33 | 38.66847 | 13.14775 | 35116 ft | 464 kts | 155° |
| 2026-04-27 15:34 | 38.61120 | 13.18592 | 35120 ft | 464 kts | 155° |
| 2026-04-27 15:34 | 38.55393 | 13.22433 | 35116 ft | 466 kts | 151° |
| 2026-04-27 15:35 | 38.52839 | 13.25003 | 35112 ft | 470 kts | 136° |
| 2026-04-27 15:35 | 38.50586 | 13.28030 | 35110 ft | 471 kts | 135° |
| 2026-04-27 15:35 | 38.48340 | 13.31087 | 34924 ft | 472 kts | 135° |
| 2026-04-27 15:35 | 38.46096 | 13.34153 | 34682 ft | 473 kts | 135° |
| 2026-04-27 15:36 | 38.43853 | 13.37219 | 34441 ft | 473 kts | 135° |
| 2026-04-27 15:36 | 38.41608 | 13.40282 | 34089 ft | 473 kts | 135° |
| 2026-04-27 15:36 | 38.39338 | 13.43367 | 33032 ft | 480 kts | 135° |
| 2026-04-27 15:36 | 38.37046 | 13.46471 | 32138 ft | 482 kts | 135° |
| 2026-04-27 15:37 | 38.34710 | 13.49635 | 31256 ft | 484 kts | 135° |
| 2026-04-27 15:37 | 38.32423 | 13.52733 | 30778 ft | 477 kts | 135° |
| 2026-04-27 15:37 | 38.30160 | 13.55799 | 30161 ft | 474 kts | 135° |
| 2026-04-27 15:37 | 38.27904 | 13.58852 | 29515 ft | 470 kts | 135° |
| 2026-04-27 15:38 | 38.25675 | 13.61867 | 28933 ft | 465 kts | 135° |
| 2026-04-27 15:38 | 38.23472 | 13.64843 | 28341 ft | 460 kts | 135° |
| 2026-04-27 15:38 | 38.21285 | 13.67792 | 27753 ft | 456 kts | 135° |
| 2026-04-27 15:38 | 38.19116 | 13.70710 | 27180 ft | 452 kts | 134° |
| 2026-04-27 15:39 | 38.16962 | 13.73600 | 26568 ft | 448 kts | 135° |
| 2026-04-27 15:39 | 38.14773 | 13.76478 | 25469 ft | 457 kts | 135° |
| 2026-04-27 15:39 | 38.12528 | 13.79352 | 24517 ft | 461 kts | 136° |
| 2026-04-27 15:39 | 38.10249 | 13.82220 | 23730 ft | 461 kts | 136° |
| 2026-04-27 15:40 | 38.07975 | 13.85067 | 22940 ft | 457 kts | 136° |
| 2026-04-27 15:40 | 38.05722 | 13.87885 | 22215 ft | 452 kts | 136° |
| 2026-04-27 15:40 | 38.03499 | 13.90675 | 21515 ft | 447 kts | 136° |
| 2026-04-27 15:40 | 38.01308 | 13.93440 | 20987 ft | 439 kts | 135° |
| 2026-04-27 15:41 | 37.99172 | 13.96142 | 20392 ft | 434 kts | 135° |
| 2026-04-27 15:41 | 37.97035 | 13.98843 | 19653 ft | 433 kts | 135° |
| 2026-04-27 15:41 | 37.94907 | 14.01532 | 19046 ft | 430 kts | 135° |
| 2026-04-27 15:41 | 37.92802 | 14.04189 | 18463 ft | 426 kts | 135° |
| 2026-04-27 15:42 | 37.90711 | 14.06823 | 17821 ft | 422 kts | 135° |
| 2026-04-27 15:42 | 37.88628 | 14.09447 | 17100 ft | 422 kts | 135° |
| 2026-04-27 15:42 | 37.86556 | 14.12055 | 16553 ft | 419 kts | 135° |
| 2026-04-27 15:42 | 37.84488 | 14.14652 | 15972 ft | 417 kts | 136° |
| 2026-04-27 15:43 | 37.82440 | 14.17216 | 15409 ft | 414 kts | 136° |
| 2026-04-27 15:43 | 37.80393 | 14.19771 | 14841 ft | 412 kts | 136° |
| 2026-04-27 15:43 | 37.78367 | 14.22301 | 14271 ft | 409 kts | 136° |
| 2026-04-27 15:43 | 37.76348 | 14.24824 | 13679 ft | 407 kts | 136° |
| 2026-04-27 15:44 | 37.74342 | 14.27338 | 13103 ft | 403 kts | 136° |
| 2026-04-27 15:44 | 37.72367 | 14.29811 | 12543 ft | 398 kts | 136° |
| 2026-04-27 15:44 | 37.70406 | 14.32260 | 11992 ft | 394 kts | 136° |
| 2026-04-27 15:44 | 37.68446 | 14.34707 | 11437 ft | 390 kts | 136° |
| 2026-04-27 15:45 | 37.66531 | 14.37099 | 10904 ft | 385 kts | 136° |
| 2026-04-27 15:45 | 37.64666 | 14.39427 | 10740 ft | 369 kts | 136° |
| 2026-04-27 15:45 | 37.62878 | 14.41655 | 10614 ft | 354 kts | 136° |
| 2026-04-27 15:45 | 37.61184 | 14.43760 | 10484 ft | 329 kts | 136° |
| 2026-04-27 15:46 | 37.59604 | 14.45720 | 10245 ft | 311 kts | 136° |
| 2026-04-27 15:46 | 37.58081 | 14.47605 | 9761 ft | 303 kts | 136° |
| 2026-04-27 15:46 | 37.56592 | 14.49447 | 9315 ft | 298 kts | 136° |
| 2026-04-27 15:46 | 37.55111 | 14.51280 | 8925 ft | 298 kts | 136° |
| 2026-04-27 15:47 | 37.53632 | 14.53115 | 8543 ft | 299 kts | 136° |
| 2026-04-27 15:47 | 37.52149 | 14.54953 | 8157 ft | 299 kts | 136° |
| 2026-04-27 15:47 | 37.50667 | 14.56791 | 7762 ft | 296 kts | 136° |
| 2026-04-27 15:47 | 37.49224 | 14.58580 | 7392 ft | 286 kts | 136° |
| 2026-04-27 15:48 | 37.47828 | 14.60309 | 7033 ft | 277 kts | 135° |
| 2026-04-27 15:48 | 37.46478 | 14.61979 | 6682 ft | 268 kts | 135° |
| 2026-04-27 15:48 | 37.45171 | 14.63594 | 6343 ft | 259 kts | 135° |
| 2026-04-27 15:49 | 37.43494 | 14.67323 | 5629 ft | 242 kts | 98° |
| 2026-04-27 15:49 | 37.43487 | 14.69425 | 5287 ft | 240 kts | 82° |
| 2026-04-27 15:49 | 37.43681 | 14.71509 | 5023 ft | 240 kts | 83° |
| 2026-04-27 15:49 | 37.43851 | 14.73608 | 4853 ft | 242 kts | 84° |
| 2026-04-27 15:50 | 37.44027 | 14.75708 | 4572 ft | 241 kts | 84° |
| 2026-04-27 15:50 | 37.44207 | 14.77794 | 4260 ft | 239 kts | 84° |
| 2026-04-27 15:50 | 37.44388 | 14.79874 | 3947 ft | 239 kts | 84° |
| 2026-04-27 15:50 | 37.44569 | 14.81955 | 3633 ft | 239 kts | 84° |
| 2026-04-27 15:51 | 37.44749 | 14.84036 | 3325 ft | 240 kts | 84° |
| 2026-04-27 15:51 | 37.44928 | 14.86118 | 2998 ft | 237 kts | 85° |
| 2026-04-27 15:51 | 37.45103 | 14.88144 | 2698 ft | 231 kts | 85° |
| 2026-04-27 15:51 | 37.45271 | 14.90107 | 2393 ft | 218 kts | 84° |
| 2026-04-27 15:52 | 37.45428 | 14.91928 | 2115 ft | 202 kts | 84° |
| 2026-04-27 15:52 | 37.45575 | 14.93652 | 1890 ft | 193 kts | 85° |
| 2026-04-27 15:52 | 37.45717 | 14.95310 | 1603 ft | 182 kts | 85° |
| 2026-04-27 15:52 | 37.45845 | 14.96813 | 1374 ft | 167 kts | 86° |
| 2026-04-27 15:53 | 37.45962 | 14.98175 | 1240 ft | 148 kts | 86° |
| 2026-04-27 15:53 | 37.46034 | 14.99023 | 1109 ft | 142 kts | 86° |
| 2026-04-27 15:53 | 37.46137 | 15.00237 | 921 ft | 137 kts | 84° |
| 2026-04-27 15:53 | 37.46238 | 15.01435 | 742 ft | 137 kts | 84° |
| 2026-04-27 15:54 | 37.46337 | 15.02623 | 520 ft | 137 kts | 83° |
| 2026-04-27 15:54 | 37.46435 | 15.03806 | 370 ft | 137 kts | 83° |
| 2026-04-27 15:54 | 37.46535 | 15.04981 | 153 ft | 135 kts | 82° |
| 2026-04-27 15:54 | 37.46636 | 15.06133 | 42 ft | 123 kts | 83° |
| 2026-04-27 15:55 | 37.46701 | 15.06885 | 36 ft | 44 kts | 84° |
| 2026-04-27 15:55 | 37.46729 | 15.07223 | 32 ft | 36 kts | 83° |
| 2026-04-27 15:55 | 37.46753 | 15.07499 | 30 ft | 27 kts | 78° |
| 2026-04-27 15:55 | 37.46811 | 15.07688 | 32 ft | 19 kts | 60° |
| 2026-04-27 15:56 | 37.46891 | 15.07806 | 29 ft | 16 kts | 14° |
| 2026-04-27 15:56 | 37.46935 | 15.07712 | 31 ft | 11 kts | 263° |
| 2026-04-27 15:56 | 37.46925 | 15.07612 | 33 ft | 12 kts | 263° |
| 2026-04-27 15:56 | 37.46914 | 15.07503 | 33 ft | 14 kts | 264° |
| 2026-04-27 15:57 | 37.46904 | 15.07372 | 33 ft | 16 kts | 265° |
| 2026-04-27 15:57 | 37.46894 | 15.07230 | 35 ft | 17 kts | 264° |
| 2026-04-27 15:57 | 37.46881 | 15.07075 | 34 ft | 19 kts | 264° |
| 2026-04-27 15:57 | 37.46866 | 15.06897 | 31 ft | 19 kts | 265° |
| 2026-04-27 15:58 | 37.46854 | 15.06757 | 33 ft | 15 kts | 263° |
| 2026-04-27 15:58 | 37.46843 | 15.06630 | 34 ft | 14 kts | 266° |
| 2026-04-27 15:58 | 37.46833 | 15.06501 | 34 ft | 12 kts | 263° |
| 2026-04-27 15:58 | 37.46840 | 15.06444 | 32 ft | 5 kts | 338° |
| 2026-04-27 15:59 | 37.46862 | 15.06413 | 33 ft | 5 kts | 271° |
| 2026-04-27 15:59 | 37.46865 | 15.06378 | 32 ft | 4 kts | 294° |
| 2026-04-27 15:59 | 37.46890 | 15.06365 | 33 ft | 5 kts | 355° |
| 2026-04-27 15:59 | 37.46930 | 15.06375 | 33 ft | 7 kts | 27° |
| 2026-04-27 16:00 | 37.46970 | 15.06404 | 33 ft | 4 kts | 31° |
| 2026-04-27 16:00 | 37.46984 | 15.06415 | 31 ft | 0 kts | 31° |